Flight Track Log - Related Links

Times and Time Zones

All times are in EDT time to prevent confusion due to time zone crossing. See the DKT111 flight status page for this flight to view local times or setup timezone preferences in your user account.

Time Position Orientation Groundspeed Altitude Reporting Facility
EDT Latitude Longitude Course Direction KTS MPH feet Rate Location/Type
Fri 09:49:10 AM 45.3436 -98.3903 148° Southeast 226 260 7,300  Level Minneapolis Center
Fri 09:50:11 AM 45.2783 -98.3278 146° Southeast 231 266 9,500 1,805 Climbing Minneapolis Center
Fri 09:51:13 AM 45.2228 -98.2714 144° Southeast 241 277 11,000 1,452 Climbing Minneapolis Center
Fri 09:52:15 AM 45.1653 -98.2108 143° Southeast 252 290 12,500 1,191 Climbing Minneapolis Center
Fri 09:53:00 AM 45.0807 -98.0799 147° Southeast  Level Estimated
Fri 09:53:29 AM 45.1047 -98.1556 147° Southeast 257 296 13,700  Level Minneapolis Center
Fri 09:54:31 AM 45.0219 -98.0797 147° Southeast 266 306 14,900 629 Climbing Minneapolis Center
Fri 09:55:33 AM 44.9550 -98.0131 145° Southeast 285 328 15,000 97 Climbing Minneapolis Center
Fri 09:56:35 AM 44.8836 -97.9442 146° Southeast 303 349 15,100  Climbing Minneapolis Center
Fri 09:57:36 AM 44.8117 -97.8739 145° Southeast 312 359 15,000 -98 Descending Minneapolis Center
Fri 09:58:38 AM 44.7408 -97.7953 142° Southeast 321 369 14,900  Descending Minneapolis Center
Fri 09:59:42 AM 44.6572 -97.7094 144° Southeast 315 362 15,000 48 Climbing Minneapolis Center
Fri 10:00:43 AM 44.5853 -97.6408 146° Southeast 313 360 15,000  Level Minneapolis Center
Fri 10:01:45 AM 44.5097 -97.5750 148° Southeast 316 364 15,000  Level Minneapolis Center
Fri 10:02:47 AM 44.4339 -97.5136 150° Southeast 316 364 15,000 -145 Level Minneapolis Center
Fri 10:03:49 AM 44.3575 -97.4533 151° Southeast 316 364 14,700 -484 Descending Minneapolis Center
Fri 10:04:51 AM 44.2753 -97.3919 152° Southeast 327 376 14,000 -732 Descending Minneapolis Center
Fri 10:05:52 AM 44.1944 -97.3264 150° Southeast 335 386 13,200 -976 Descending Minneapolis Center
Fri 10:06:54 AM 44.1128 -97.2625 151° Southeast 337 388 12,000 -1,210 Descending Minneapolis Center
Fri 10:07:56 AM 44.0289 -97.2017 152° Southeast 340 391 10,700 -1,161 Descending Minneapolis Center
Fri 10:08:58 AM 43.9283 -97.1250 151° Southeast 345 397 9,600 -1,113 Descending Minneapolis Center
Fri 10:10:00 AM 43.8497 -97.0592 149° Southeast 340 391 8,400 -1,366 Descending Minneapolis Center
Fri 10:11:01 AM 43.7753 -96.9931 147° Southeast 333 383 6,800 -1,512 Descending Minneapolis Center
Fri 10:12:03 AM 43.6900 -96.9183 148° Southeast 319 367 5,300 -1,355 Descending Minneapolis Center
Fri 10:13:05 AM 43.6267 -96.8589 146° Southeast 302 348 4,000 -919 Descending Minneapolis Center
Fri 10:14:07 AM 43.5731 -96.8039 143° Southeast 275 316 3,400 -677 Descending Minneapolis Center
Fri 10:15:09 AM 43.5464 -96.7514 125° Southeast 230 265 2,600 -677 Descending Minneapolis Center
Fri 10:16:11 AM 43.5781 -96.7128 41° Northeast 188 216 2,000 -581 Descending Minneapolis Center
Fri 10:18:00 AM 43.5667 -96.7333 148° Southeast  Level FlightAware Approximate
Fri 10:25:00 AM 43.5820 -96.7419 148° Southeast  Level Estimated

Login

Don't have an account? Register now (free) for customized features, flight alerts, and more!